Time;durP1;ratioP1;P1;durP2;ratioP2;P2;SDS_P1;SDS_P2;PMS_P1;PMS_P2;Temp;Humidity;BMP_temperature;BMP_pressure;BME280_temperature;BME280_humidity;BME280_pressure;Samples;Min_cycle;Max_cycle;Signal;HPM_P1;HPM_P2
2023/07/12 00:01:50;;;;;;;5.28;3.97;;;16.60;99.90;;;;;;5038190;28;20656;-87
2023/07/12 00:04:16;;;;;;;4.82;3.20;;;;;;;;;;5018327;28;20196;-87
2023/07/12 00:06:42;;;;;;;6.57;3.10;;;16.60;99.90;;;;;;5035887;28;20184;-87
2023/07/12 00:09:13;;;;;;;9.77;3.38;;;16.50;99.90;;;;;;5018738;28;20279;-88
2023/07/12 00:11:40;;;;;;;5.70;3.35;;;16.40;99.90;;;;;;5036097;28;20199;-88
2023/07/12 00:14:05;;;;;;;5.50;3.30;;;16.40;99.90;;;;;;5035626;28;20542;-88
2023/07/12 00:16:36;;;;;;;7.47;3.60;;;16.30;99.90;;;;;;5018235;28;20231;-88
2023/07/12 00:19:04;;;;;;;5.50;3.47;;;16.50;99.90;;;;;;5035076;28;20493;-88
2023/07/12 00:21:30;;;;;;;4.90;3.20;;;16.00;99.90;;;;;;5034672;28;20247;-88
2023/07/12 00:23:58;;;;;;;4.90;3.03;;;16.00;99.90;;;;;;5036022;28;20204;-88
2023/07/12 00:26:30;;;;;;;6.07;3.35;;;16.20;99.90;;;;;;5036067;28;20210;-88
2023/07/12 00:28:57;;;;;;;6.32;4.03;;;16.20;99.90;;;;;;5035310;28;20655;-88
2023/07/12 00:31:24;;;;;;;7.57;5.00;;;16.20;99.90;;;;;;5033582;28;20177;-88
2023/07/12 00:33:50;;;;;;;9.20;5.13;;;16.20;99.90;;;;;;5035220;28;20181;-87
2023/07/12 00:36:22;;;;;;;8.10;4.75;;;16.20;99.90;;;;;;5035740;28;20213;-87
2023/07/12 00:38:48;;;;;;;6.30;4.75;;;16.20;99.90;;;;;;5049322;28;20173;-87
2023/07/12 00:41:31;;;;;;;9.20;5.60;;;16.30;99.90;;;;;;5044563;28;20246;-87
2023/07/12 00:44:07;;;;;;;7.45;4.95;;;16.20;99.90;;;;;;5036107;28;20201;-87
2023/07/12 00:46:44;;;;;;;8.18;5.75;;;16.40;99.90;;;;;;5035253;28;20183;-88
2023/07/12 00:49:10;;;;;;;6.88;4.88;;;16.20;99.90;;;;;;5034836;28;20628;-88
2023/07/12 00:52:01;;;;;;;4.90;3.67;;;16.20;99.90;;;;;;5035162;28;20173;-89
2023/07/12 00:55:03;;;;;;;7.75;3.15;;;16.20;99.90;;;;;;5035417;28;20176;-87
2023/07/12 00:57:31;;;;;;;3.65;3.03;;;16.20;99.90;;;;;;5034050;28;20183;-87
2023/07/12 01:00:01;;;;;;;5.60;2.70;;;16.20;99.90;;;;;;5034784;28;20211;-87
2023/07/12 01:02:27;;;;;;;4.25;2.80;;;16.20;99.90;;;;;;5035012;28;20208;-88
2023/07/12 01:04:57;;;;;;;4.40;3.13;;;16.30;99.90;;;;;;5033299;28;20189;-87
2023/07/12 01:07:25;;;;;;;4.35;2.83;;;16.60;99.90;;;;;;5033431;28;20176;-87
2023/07/12 01:09:50;;;;;;;5.07;2.83;;;16.30;99.90;;;;;;5034649;28;20197;-87
2023/07/12 01:12:16;;;;;;;6.78;3.15;;;16.30;99.90;;;;;;5016995;28;20195;-87
2023/07/12 01:14:43;;;;;;;6.53;3.08;;;16.30;99.90;;;;;;5034850;28;20649;-88
2023/07/12 01:17:09;;;;;;;4.72;2.60;;;16.30;99.90;;;;;;5034343;28;20172;-87
2023/07/12 01:19:37;;;;;;;3.65;2.85;;;16.30;99.90;;;;;;5034518;28;20665;-87
2023/07/12 01:22:03;;;;;;;6.68;3.40;;;16.20;99.90;;;;;;5034055;28;20169;-87
2023/07/12 01:24:31;;;;;;;4.35;2.60;;;16.20;99.90;;;;;;5034633;28;20192;-88
2023/07/12 01:27:01;;;;;;;4.75;3.30;;;16.20;99.90;;;;;;5034274;28;20234;-88
2023/07/12 01:29:27;;;;;;;4.43;3.08;;;16.10;99.90;;;;;;5034607;28;20268;-88
2023/07/12 01:31:53;;;;;;;4.35;2.67;;;16.10;99.90;;;;;;5033431;28;20180;-87
2023/07/12 01:34:19;;;;;;;4.47;3.05;;;16.00;99.90;;;;;;5033323;28;20199;-87
2023/07/12 01:36:45;;;;;;;3.78;2.72;;;16.00;99.90;;;;;;5034464;28;20180;-86
2023/07/12 01:39:11;;;;;;;4.40;2.65;;;16.00;99.90;;;;;;5034287;28;20242;-86
2023/07/12 01:41:38;;;;;;;5.75;3.40;;;15.90;99.90;;;;;;5032859;28;20701;-87
2023/07/12 01:44:04;;;;;;;7.72;2.80;;;16.90;99.90;;;;;;5032977;28;20208;-86
2023/07/12 01:46:30;;;;;;;5.65;3.08;;;16.10;99.90;;;;;;5034198;28;20219;-87
2023/07/12 01:48:56;;;;;;;4.80;3.13;;;16.10;99.90;;;;;;5033768;28;20176;-86
2023/07/12 01:51:22;;;;;;;5.00;3.00;;;;;;;;;;5034227;28;20202;-87
2023/07/12 01:53:48;;;;;;;4.60;2.83;;;16.50;99.90;;;;;;5032856;28;20246;-87
2023/07/12 01:56:16;;;;;;;8.48;2.97;;;16.00;99.90;;;;;;5032596;28;20214;-87
2023/07/12 01:58:41;;;;;;;5.00;3.08;;;16.10;99.90;;;;;;5034104;28;20641;-87
2023/07/12 02:01:08;;;;;;;8.23;3.63;;;;;;;;;;5032309;28;20184;-87
2023/07/12 02:03:34;;;;;;;6.28;3.40;;;16.20;99.90;;;;;;5032540;28;20221;-87
2023/07/12 02:06:00;;;;;;;3.92;2.85;;;16.00;99.90;;;;;;5032357;28;20182;-86
2023/07/12 02:08:26;;;;;;;4.30;2.65;;;15.90;99.90;;;;;;5032477;28;20181;-87
2023/07/12 02:10:52;;;;;;;6.55;3.00;;;;;;;;;;5032258;28;20263;-87
2023/07/12 02:13:19;;;;;;;3.33;2.47;;;15.70;99.90;;;;;;5031914;28;20192;-86
2023/07/12 02:15:45;;;;;;;4.43;3.00;;;16.10;99.90;;;;;;5032392;28;20207;-86
2023/07/12 02:18:12;;;;;;;5.50;3.00;;;15.90;99.90;;;;;;5033163;28;20211;-86
2023/07/12 02:20:37;;;;;;;8.95;3.75;;;15.90;99.90;;;;;;5032139;28;20177;-86
2023/07/12 02:23:03;;;;;;;5.30;3.13;;;;;;;;;;5033675;28;20544;-87
2023/07/12 02:25:29;;;;;;;6.35;3.63;;;16.00;99.90;;;;;;5033182;28;20287;-88
2023/07/12 02:27:55;;;;;;;3.05;2.65;;;15.70;99.90;;;;;;5033371;28;20203;-87
2023/07/12 02:30:23;;;;;;;7.05;3.20;;;15.90;99.90;;;;;;5032738;28;20180;-88
2023/07/12 02:32:50;;;;;;;5.78;3.05;;;15.90;99.90;;;;;;5033886;28;20191;-88
2023/07/12 02:35:19;;;;;;;5.53;3.38;;;15.40;99.90;;;;;;5033703;28;20177;-87
2023/07/12 02:37:46;;;;;;;4.68;2.92;;;16.20;99.90;;;;;;5033791;28;20173;-87
2023/07/12 02:40:13;;;;;;;4.57;3.13;;;15.80;99.90;;;;;;5032334;28;20211;-87
2023/07/12 02:42:38;;;;;;;4.72;3.17;;;15.40;99.90;;;;;;5031961;28;20315;-87
2023/07/12 02:45:06;;;;;;;4.15;3.00;;;15.70;99.90;;;;;;5032973;28;20259;-86
2023/07/12 02:47:31;;;;;;;4.63;2.97;;;15.30;99.90;;;;;;5034614;28;20526;-87
2023/07/12 02:49:58;;;;;;;7.63;2.88;;;;;;;;;;5039831;28;20226;-87
2023/07/12 02:52:24;;;;;;;4.80;2.92;;;;;;;;;;5040456;28;20238;-87
2023/07/12 02:54:49;;;;;;;8.60;3.10;;;16.10;99.90;;;;;;5016232;28;20222;-87
2023/07/12 02:57:16;;;;;;;5.45;3.33;;;15.80;99.90;;;;;;5034670;28;20180;-87
2023/07/12 02:59:42;;;;;;;5.85;2.97;;;15.50;99.90;;;;;;5040686;28;20195;-87
2023/07/12 03:02:09;;;;;;;4.13;2.80;;;15.70;99.90;;;;;;5040084;28;20523;-87
2023/07/12 03:04:35;;;;;;;4.80;3.40;;;15.70;99.90;;;;;;5038306;28;20306;-87
2023/07/12 03:07:01;;;;;;;5.55;3.30;;;15.50;99.90;;;;;;5032250;28;20177;-87
2023/07/12 03:09:27;;;;;;;5.88;3.22;;;15.70;99.90;;;;;;5033314;28;20823;-87
2023/07/12 03:11:53;;;;;;;3.55;2.72;;;;;;;;;;5033452;28;20230;-87
2023/07/12 03:14:20;;;;;;;5.53;2.83;;;15.80;99.90;;;;;;5033051;28;20172;-88
2023/07/12 03:16:46;;;;;;;6.45;2.83;;;15.90;99.90;;;;;;5016037;28;20637;-88
2023/07/12 03:19:13;;;;;;;4.35;3.35;;;16.50;99.90;;;;;;5034791;28;20169;-89
2023/07/12 03:21:39;;;;;;;4.28;3.00;;;15.90;99.90;;;;;;5034393;28;20181;-86
2023/07/12 03:24:06;;;;;;;4.50;3.10;;;15.70;99.90;;;;;;5034671;28;20204;-87
2023/07/12 03:26:32;;;;;;;4.60;2.70;;;15.90;99.90;;;;;;5032968;28;20203;-87
2023/07/12 03:28:58;;;;;;;8.50;2.65;;;;;;;;;;5032753;28;20557;-87
2023/07/12 03:31:25;;;;;;;4.00;2.40;;;16.00;99.90;;;;;;5015052;28;20195;-89
2023/07/12 03:33:51;;;;;;;5.88;3.33;;;16.00;99.90;;;;;;5033673;28;20208;-88
2023/07/12 03:36:20;;;;;;;6.78;2.58;;;16.30;99.90;;;;;;5031421;28;20212;-88
2023/07/12 03:38:45;;;;;;;5.07;2.92;;;16.50;99.90;;;;;;5031460;28;20537;-88
2023/07/12 03:41:12;;;;;;;5.05;3.15;;;;;;;;;;5032242;28;20180;-87
2023/07/12 03:43:38;;;;;;;4.78;2.97;;;;;;;;;;5043478;28;20242;-88
2023/07/12 03:46:04;;;;;;;6.45;3.97;;;16.70;99.90;;;;;;5031359;28;20201;-87
2023/07/12 03:48:30;;;;;;;4.68;3.22;;;16.80;99.90;;;;;;5031118;28;20267;-87
2023/07/12 03:50:56;;;;;;;4.60;3.10;;;16.30;99.90;;;;;;5032547;28;20187;-87
2023/07/12 03:53:23;;;;;;;7.60;3.40;;;16.70;99.90;;;;;;5032187;28;20177;-88
2023/07/12 03:55:50;;;;;;;7.82;2.70;;;16.80;99.90;;;;;;5014889;28;20188;-87
2023/07/12 03:58:19;;;;;;;4.90;3.03;;;16.30;99.90;;;;;;5032066;28;20253;-88
2023/07/12 04:00:47;;;;;;;5.15;3.38;;;16.80;99.90;;;;;;5031098;28;20172;-87
2023/07/12 04:03:14;;;;;;;6.05;3.72;;;16.70;99.90;;;;;;5030967;28;20208;-87
2023/07/12 04:05:41;;;;;;;3.88;2.50;;;17.00;99.90;;;;;;5032708;28;20180;-88
2023/07/12 04:08:07;;;;;;;3.67;2.60;;;17.50;99.90;;;;;;5035862;28;20184;-87
2023/07/12 04:10:33;;;;;;;3.45;2.30;;;17.10;99.90;;;;;;5034132;28;20192;-88
2023/07/12 04:12:59;;;;;;;6.57;2.90;;;;;;;;;;5035513;28;20187;-87
2023/07/12 04:15:25;;;;;;;4.07;2.40;;;17.10;99.90;;;;;;5017878;28;20184;-88
2023/07/12 04:17:51;;;;;;;3.28;2.78;;;17.20;99.90;;;;;;5034741;28;20172;-87
2023/07/12 04:20:17;;;;;;;5.00;2.97;;;17.00;99.90;;;;;;5035417;28;20187;-88
2023/07/12 04:22:43;;;;;;;5.65;2.95;;;17.90;99.90;;;;;;5034695;28;20201;-87
2023/07/12 04:25:10;;;;;;;3.42;3.00;;;17.50;99.90;;;;;;5034498;28;20212;-87
2023/07/12 04:27:37;;;;;;;7.70;3.10;;;18.20;99.90;;;;;;5035269;28;20172;-87
2023/07/12 04:30:05;;;;;;;5.10;2.28;;;18.40;99.90;;;;;;5034467;28;20540;-86
2023/07/12 04:32:31;;;;;;;4.65;2.30;;;18.60;99.90;;;;;;5035448;28;20173;-86
2023/07/12 04:34:57;;;;;;;2.97;2.40;;;17.80;99.90;;;;;;5034405;28;20183;-86
2023/07/12 04:37:23;;;;;;;7.60;2.97;;;;;;;;;;5044237;28;20179;-86
2023/07/12 04:39:48;;;;;;;5.35;2.33;;;18.50;99.90;;;;;;5044112;28;20180;-86
2023/07/12 04:42:14;;;;;;;4.35;2.35;;;;;;;;;;5044768;28;20265;-87
2023/07/12 04:44:40;;;;;;;3.03;2.47;;;18.60;99.90;;;;;;5045392;28;20224;-85
2023/07/12 04:47:06;;;;;;;3.05;2.60;;;;;;;;;;5041687;28;20172;-87
2023/07/12 04:49:32;;;;;;;3.20;2.65;;;19.20;99.90;;;;;;5033723;28;20185;-87
2023/07/12 04:51:59;;;;;;;4.50;2.15;;;;;;;;;;5038147;28;20185;-88
2023/07/12 04:54:25;;;;;;;4.60;2.78;;;19.20;99.90;;;;;;5043482;28;20214;-90
2023/07/12 04:56:51;;;;;;;3.33;2.70;;;;;;;;;;5045387;28;20585;-89
2023/07/12 04:59:21;;;;;;;3.40;1.90;;;19.20;99.90;;;;;;5046565;28;20191;-91
2023/07/12 05:01:46;;;;;;;5.22;2.25;;;19.00;99.90;;;;;;5042182;28;20200;-91
2023/07/12 05:04:14;;;;;;;5.55;2.58;;;;;;;;;;5040225;28;20306;-91
2023/07/12 05:06:39;;;;;;;4.75;2.28;;;19.70;99.90;;;;;;5014988;28;20263;-89
2023/07/12 05:09:05;;;;;;;3.53;2.58;;;19.80;99.90;;;;;;5031309;28;20719;-93
2023/07/12 05:11:31;;;;;;;4.65;2.45;;;;;;;;;;5028511;28;20937;-94
2023/07/12 05:13:57;;;;;;;5.20;2.83;;;20.00;99.90;;;;;;5019932;28;20200;-94
2023/07/12 05:16:23;;;;;;;3.42;2.05;;;;;;;;;;5010660;28;20654;-92
2023/07/12 05:18:49;;;;;;;4.35;2.00;;;20.20;99.90;;;;;;5046015;28;20193;-94
2023/07/12 05:21:15;;;;;;;3.08;2.00;;;;;;;;;;5025773;28;20601;-95
2023/07/12 05:23:41;;;;;;;2.17;1.98;;;20.60;99.90;;;;;;5033927;28;20216;-92
2023/07/12 05:26:07;;;;;;;2.50;1.65;;;20.10;99.90;;;;;;5034154;28;20181;-92
2023/07/12 05:28:34;;;;;;;3.95;1.95;;;20.80;99.90;;;;;;5029373;28;20216;-92
2023/07/12 05:31:05;;;;;;;5.30;2.67;;;20.80;99.90;;;;;;5030527;28;20193;-94
2023/07/12 05:33:31;;;;;;;3.53;1.90;;;;;;;;;;5005606;28;20197;-93
2023/07/12 05:35:57;;;;;;;3.00;2.03;;;;;;;;;;5027968;28;20231;-92
2023/07/12 05:38:23;;;;;;;3.50;2.33;;;21.40;99.90;;;;;;5038066;28;20187;-94
2023/07/12 05:40:49;;;;;;;2.70;2.17;;;21.40;99.90;;;;;;5044821;28;20201;-92
2023/07/12 05:43:22;;;;;;;2.97;1.92;;;21.50;99.90;;;;;;5028300;28;20244;-94
2023/07/12 05:45:48;;;;;;;1.75;1.65;;;21.70;99.90;;;;;;5033586;28;20181;-93
2023/07/12 05:48:14;;;;;;;2.42;2.17;;;22.10;99.90;;;;;;5030435;28;20271;-94
2023/07/12 05:50:39;;;;;;;2.80;1.70;;;22.00;99.90;;;;;;5019970;28;20193;-94
2023/07/12 05:53:05;;;;;;;3.83;1.80;;;22.00;99.90;;;;;;5028364;28;20225;-93
2023/07/12 05:55:31;;;;;;;4.80;2.00;;;;;;;;;;5021228;28;20186;-93
2023/07/12 05:57:57;;;;;;;2.80;2.35;;;;;;;;;;5024478;28;20736;-93
2023/07/12 06:00:23;;;;;;;2.30;2.10;;;22.10;99.90;;;;;;5030873;28;20560;-93
2023/07/12 06:02:49;;;;;;;4.03;1.85;;;;;;;;;;5042028;28;20224;-93
2023/07/12 06:05:16;;;;;;;5.57;3.40;;;;;;;;;;5026102;28;20197;-94
2023/07/12 06:07:42;;;;;;;2.83;2.30;;;22.60;99.90;;;;;;5038378;28;20211;-93
2023/07/12 06:10:08;;;;;;;3.10;2.20;;;23.10;99.90;;;;;;5032791;28;20192;-92
2023/07/12 06:12:34;;;;;;;4.72;1.88;;;;;;;;;;5009940;28;20189;-94
2023/07/12 06:15:00;;;;;;;4.40;2.38;;;;;;;;;;5020101;28;20280;-95
2023/07/12 06:17:26;;;;;;;2.58;1.95;;;;;;;;;;5057725;28;20451;-93
2023/07/12 06:19:52;;;;;;;3.17;2.15;;;;;;;;;;5024831;28;20642;-93
2023/07/12 06:22:18;;;;;;;4.82;2.25;;;;;;;;;;5023754;28;20177;-93
2023/07/12 06:24:44;;;;;;;3.90;2.88;;;;;;;;;;5037663;28;20201;-91
2023/07/12 06:27:10;;;;;;;2.85;2.58;;;;;;;;;;5000722;28;20185;-94
2023/07/12 06:29:36;;;;;;;3.35;2.38;;;;;;;;;;5037118;28;20192;-93
2023/07/12 06:32:05;;;;;;;2.92;2.42;;;;;;;;;;5030216;28;20181;-96
2023/07/12 06:34:31;;;;;;;3.70;2.63;;;;;;;;;;5041600;28;20209;-94
2023/07/12 06:36:57;;;;;;;3.60;2.33;;;;;;;;;;5042101;28;20259;-91
2023/07/12 06:39:24;;;;;;;3.75;2.38;;;;;;;;;;5025703;28;20190;-92
2023/07/12 06:41:50;;;;;;;4.05;2.42;;;23.80;95.80;;;;;;5033315;28;20239;-93
2023/07/12 06:44:16;;;;;;;3.30;2.85;;;;;;;;;;5030964;28;20243;-95
2023/07/12 06:46:42;;;;;;;4.53;2.90;;;;;;;;;;5034815;28;20661;-94
2023/07/12 06:49:13;;;;;;;7.22;2.58;;;23.90;96.10;;;;;;5013641;28;20197;-92
2023/07/12 06:51:39;;;;;;;3.53;2.85;;;;;;;;;;5036000;28;20164;-95
2023/07/12 06:54:05;;;;;;;5.20;2.80;;;;;;;;;;5040690;28;20660;-94
2023/07/12 06:56:31;;;;;;;5.60;2.72;;;;;;;;;;5042665;28;20187;-94
2023/07/12 06:58:57;;;;;;;2.78;2.55;;;;;;;;;;5031595;28;20204;-96
2023/07/12 07:01:23;;;;;;;8.65;3.45;;;;;;;;;;5043485;28;20180;-93
2023/07/12 07:03:51;;;;;;;5.75;3.08;;;24.40;91.60;;;;;;5039488;28;20243;-95
2023/07/12 07:06:19;;;;;;;4.15;3.20;;;;;;;;;;5034877;28;20172;-94
2023/07/12 07:08:45;;;;;;;4.28;3.10;;;;;;;;;;5044501;28;20173;-93
2023/07/12 07:11:13;;;;;;;3.13;2.83;;;24.60;92.20;;;;;;5031597;28;20655;-92
2023/07/12 07:13:39;;;;;;;5.57;3.67;;;;;;;;;;5023621;28;20688;-90
2023/07/12 07:16:06;;;;;;;3.65;3.25;;;;;;;;;;5020591;28;20216;-91
2023/07/12 07:18:32;;;;;;;4.20;3.33;;;;;;;;;;5021076;28;20178;-91
2023/07/12 07:20:59;;;;;;;3.95;3.05;;;24.50;90.70;;;;;;5018891;28;20189;-91
2023/07/12 07:23:25;;;;;;;4.95;3.53;;;;;;;;;;5022879;28;20240;-88
2023/07/12 07:25:53;;;;;;;4.68;3.28;;;24.70;87.60;;;;;;5022136;28;20243;-90
2023/07/12 07:28:20;;;;;;;4.25;3.08;;;;;;;;;;5024585;28;20198;-91
2023/07/12 07:30:55;;;;;;;5.05;3.58;;;24.90;89.10;;;;;;5049155;28;20192;-86
2023/07/12 07:33:21;;;;;;;4.35;3.40;;;;;;;;;;5037354;28;20187;-89
2023/07/12 07:35:47;;;;;;;4.53;3.78;;;;;;;;;;5037657;28;20182;-87
2023/07/12 07:38:13;;;;;;;4.40;3.42;;;;;;;;;;5055124;28;20288;-87
2023/07/12 07:40:41;;;;;;;5.10;3.50;;;25.30;84.80;;;;;;5046816;28;20185;-91
2023/07/12 07:43:07;;;;;;;7.45;3.63;;;;;;;;;;5017985;28;20245;-90
2023/07/12 07:45:36;;;;;;;3.55;2.90;;;25.40;83.70;;;;;;5042198;28;20240;-89
2023/07/12 07:48:02;;;;;;;4.13;3.33;;;;;;;;;;5032943;28;20176;-88
2023/07/12 07:50:28;;;;;;;5.32;3.38;;;25.40;82.50;;;;;;5036353;28;20246;-89
2023/07/12 07:52:54;;;;;;;4.00;3.05;;;25.40;85.40;;;;;;5033866;28;20599;-88
2023/07/12 07:55:21;;;;;;;3.92;3.05;;;25.70;83.10;;;;;;5034822;28;20595;-89
2023/07/12 07:57:47;;;;;;;4.60;3.08;;;25.60;83.60;;;;;;5034776;28;20180;-87
2023/07/12 08:00:15;;;;;;;3.65;3.05;;;25.60;81.00;;;;;;5048653;28;20231;-91
2023/07/12 08:02:42;;;;;;;3.60;3.13;;;25.40;83.30;;;;;;5045161;28;20238;-88
2023/07/12 08:05:12;;;;;;;6.38;3.33;;;25.50;91.60;;;;;;5040917;28;20234;-89
2023/07/12 08:07:46;;;;;;;4.82;3.30;;;26.20;91.40;;;;;;5016076;28;20189;-88
2023/07/12 08:10:15;;;;;;;5.95;3.10;;;25.80;84.40;;;;;;5026742;28;20593;-88
2023/07/12 08:12:42;;;;;;;5.70;3.67;;;26.40;92.60;;;;;;5015578;28;20177;-88
2023/07/12 08:15:09;;;;;;;3.90;3.33;;;25.90;90.90;;;;;;5027037;28;20221;-88
2023/07/12 08:17:35;;;;;;;3.25;2.95;;;;;;;;;;5020890;28;20184;-86
2023/07/12 08:20:02;;;;;;;4.13;2.95;;;;;;;;;;5020653;28;20196;-86
2023/07/12 08:22:28;;;;;;;4.90;3.33;;;;;;;;;;5026957;28;20215;-87
2023/07/12 08:24:53;;;;;;;4.13;3.40;;;25.80;91.20;;;;;;5033449;28;20551;-90
2023/07/12 08:27:19;;;;;;;5.13;3.50;;;26.10;91.60;;;;;;5047804;28;20203;-88
2023/07/12 08:29:45;;;;;;;3.10;2.80;;;26.20;88.80;;;;;;5026214;28;20185;-87
2023/07/12 08:32:12;;;;;;;5.00;3.30;;;26.70;88.50;;;;;;5028651;28;20753;-86
2023/07/12 08:34:38;;;;;;;4.22;3.60;;;;;;;;;;5018439;28;20212;-87
2023/07/12 08:37:04;;;;;;;3.90;3.50;;;25.70;86.50;;;;;;5034695;28;20184;-89
2023/07/12 08:39:30;;;;;;;4.45;4.05;;;26.30;75.90;;;;;;5035115;28;20215;-90
2023/07/12 08:41:56;;;;;;;4.60;3.50;;;;;;;;;;5022219;28;20189;-89
2023/07/12 08:44:23;;;;;;;4.18;3.20;;;26.40;85.50;;;;;;5032922;28;20274;-88
2023/07/12 08:46:53;;;;;;;3.90;3.28;;;26.50;74.00;;;;;;5036131;28;20649;-89
2023/07/12 08:49:18;;;;;;;4.07;3.65;;;26.20;84.50;;;;;;5024309;28;20188;-90
2023/07/12 08:51:45;;;;;;;4.03;3.40;;;26.40;72.90;;;;;;5036981;28;20550;-90
2023/07/12 08:54:22;;;;;;;5.63;4.05;;;26.40;73.50;;;;;;5031710;28;20185;-88
2023/07/12 08:57:09;;;;;;;3.60;3.25;;;26.30;83.30;;;;;;5058382;28;20177;-89
2023/07/12 08:59:35;;;;;;;4.50;3.50;;;;;;;;;;5035813;28;20197;-89
2023/07/12 09:02:03;;;;;;;4.55;3.67;;;26.50;70.50;;;;;;5034015;28;20282;-91
2023/07/12 09:04:33;;;;;;;3.50;3.10;;;26.60;70.60;;;;;;5023449;28;20221;-88
2023/07/12 09:07:04;;;;;;;3.85;3.45;;;26.40;80.00;;;;;;5032400;28;20204;-88
2023/07/12 09:09:36;;;;;;;3.85;3.10;;;26.60;67.60;;;;;;5033312;28;20181;-90
2023/07/12 09:12:04;;;;;;;2.50;2.30;;;27.20;79.30;;;;;;5035479;28;20185;-90
2023/07/12 09:14:35;;;;;;;3.28;2.97;;;27.00;69.70;;;;;;5021406;28;20192;-89
2023/07/12 09:17:01;;;;;;;3.97;3.17;;;26.70;76.80;;;;;;5056545;28;20676;-90
2023/07/12 09:19:36;;;;;;;3.53;2.70;;;26.80;63.90;;;;;;5015815;28;20272;-89
2023/07/12 09:22:13;;;;;;;4.72;3.38;;;26.30;76.90;;;;;;5036948;28;20242;-89
2023/07/12 09:24:43;;;;;;;3.53;3.08;;;26.80;66.50;;;;;;5034570;28;20419;-91
2023/07/12 09:27:25;;;;;;;3.97;3.08;;;26.90;78.10;;;;;;5041299;28;20222;-93
2023/07/12 09:30:03;;;;;;;4.45;3.08;;;26.80;64.50;;;;;;5034143;28;20716;-89
2023/07/12 09:32:34;;;;;;;4.00;3.50;;;27.00;76.90;;;;;;5020812;28;20708;-92
2023/07/12 09:35:22;;;;;;;3.70;2.92;;;26.60;61.50;;;;;;5020349;28;20191;-90
2023/07/12 09:38:06;;;;;;;3.15;2.85;;;26.50;64.00;;;;;;5021511;28;20176;-89
2023/07/12 09:40:38;;;;;;;3.58;2.75;;;26.80;63.50;;;;;;5016271;28;20583;-89
2023/07/12 09:43:12;;;;;;;3.53;3.22;;;26.90;71.70;;;;;;5037737;28;20683;-90
2023/07/12 09:45:39;;;;;;;3.38;3.00;;;26.70;71.10;;;;;;5033703;28;20239;-91
2023/07/12 09:48:36;;;;;;;3.40;2.53;;;27.40;61.60;;;;;;5019262;28;20200;-92
2023/07/12 09:51:10;;;;;;;6.35;3.10;;;27.30;68.90;;;;;;5019451;28;20228;-90
2023/07/12 09:54:06;;;;;;;6.00;2.72;;;27.10;67.80;;;;;;5039276;28;20218;-88
2023/07/12 09:56:47;;;;;;;6.78;2.88;;;27.90;68.90;;;;;;5027077;28;20196;-89
2023/07/12 09:59:49;;;;;;;5.88;3.10;;;27.70;58.60;;;;;;5033360;28;20184;-88
2023/07/12 10:02:47;;;;;;;3.63;3.20;;;28.10;68.90;;;;;;5018476;28;20180;-90
2023/07/12 10:05:18;;;;;;;3.65;2.50;;;28.40;66.90;;;;;;5026113;28;20224;-90
2023/07/12 10:08:02;;;;;;;3.50;2.42;;;28.10;56.50;;;;;;5036929;28;20180;-91
2023/07/12 10:10:55;;;;;;;2.83;2.50;;;27.70;57.70;;;;;;5066593;28;20237;-91
2023/07/12 10:13:44;;;;;;;3.45;3.15;;;27.60;70.00;;;;;;5025117;28;20185;-90
2023/07/12 10:16:18;;;;;;;3.38;2.90;;;28.30;57.80;;;;;;5043642;28;20649;-90
2023/07/12 10:18:44;;;;;;;3.13;2.28;;;28.30;55.30;;;;;;5022218;28;20224;-88
2023/07/12 10:21:17;;;;;;;3.60;2.47;;;28.30;55.80;;;;;;5014949;28;20197;-88
2023/07/12 10:23:48;;;;;;;3.03;2.72;;;28.70;57.10;;;;;;5022207;28;20226;-90
2023/07/12 10:26:15;;;;;;;3.28;2.97;;;28.40;64.50;;;;;;5033626;28;20188;-90
2023/07/12 10:28:41;;;;;;;3.60;2.75;;;;;;;;;;5035901;28;20600;-90
2023/07/12 10:31:36;;;;;;;3.42;2.83;;;28.60;54.20;;;;;;5034502;28;20188;-89
2023/07/12 10:34:21;;;;;;;3.10;2.80;;;28.50;64.10;;;;;;5035493;28;20197;-90
2023/07/12 10:36:51;;;;;;;3.25;2.92;;;29.10;56.00;;;;;;5032332;28;20661;-90
2023/07/12 10:39:18;;;;;;;5.22;2.65;;;;;;;;;;5023773;28;20184;-90
2023/07/12 10:41:51;;;;;;;2.72;2.25;;;28.90;56.40;;;;;;5024848;28;20291;-92
2023/07/12 10:44:25;;;;;;;3.00;2.60;;;28.00;61.50;;;;;;5020646;28;20233;-90
2023/07/12 10:46:58;;;;;;;3.45;2.72;;;28.40;54.50;;;;;;5026822;28;20530;-91
2023/07/12 10:49:42;;;;;;;4.03;2.97;;;28.40;55.00;;;;;;5024546;28;20212;-95
2023/07/12 10:52:11;;;;;;;3.08;2.60;;;28.60;55.50;;;;;;5032013;28;20275;-90
2023/07/12 10:54:39;;;;;;;4.43;2.80;;;28.80;56.60;;;;;;5034189;28;20519;-89
2023/07/12 10:57:25;;;;;;;3.38;3.00;;;28.90;57.10;;;;;;5034651;28;20184;-88
2023/07/12 11:00:19;;;;;;;4.07;2.90;;;29.40;56.50;;;;;;5032697;28;20645;-89
2023/07/12 11:02:48;;;;;;;3.63;2.88;;;29.60;55.00;;;;;;5019664;28;20201;-92
2023/07/12 11:05:43;;;;;;;3.10;2.70;;;29.50;51.90;;;;;;5033018;28;20207;-90
2023/07/12 11:08:30;;;;;;;4.03;2.83;;;29.00;51.90;;;;;;5032780;28;20180;-89
2023/07/12 11:11:19;;;;;;;3.47;2.30;;;28.60;50.80;;;;;;5016405;28;20189;-88
2023/07/12 11:13:51;;;;;;;5.47;2.40;;;28.70;54.30;;;;;;5022991;28;20192;-89
2023/07/12 11:16:19;;;;;;;3.42;2.85;;;29.10;52.80;;;;;;5036615;28;20656;-90
2023/07/12 11:18:51;;;;;;;2.92;2.60;;;29.20;53.10;;;;;;5028424;28;20177;-89
2023/07/12 11:21:44;;;;;;;3.55;2.90;;;29.30;50.80;;;;;;5031590;28;20204;-89
2023/07/12 11:24:25;;;;;;;5.63;2.72;;;29.60;51.90;;;;;;5041729;28;20584;-89
2023/07/12 11:26:55;;;;;;;3.03;2.55;;;29.30;52.40;;;;;;5016537;28;20209;-88
2023/07/12 11:29:24;;;;;;;3.35;3.00;;;28.90;51.80;;;;;;5017051;28;20157;-88
2023/07/12 11:32:04;;;;;;;3.63;3.10;;;28.40;52.60;;;;;;5018212;28;20188;-88
2023/07/12 11:34:31;;;;;;;2.85;2.58;;;28.30;53.20;;;;;;5034482;28;20267;-87
2023/07/12 11:37:23;;;;;;;3.88;2.67;;;28.90;54.50;;;;;;5047264;28;20187;-87
2023/07/12 11:39:49;;;;;;;5.15;2.88;;;28.90;54.90;;;;;;5035651;28;20240;-89
2023/07/12 11:42:26;;;;;;;3.88;2.95;;;29.10;54.30;;;;;;5017655;28;20262;-88
2023/07/12 11:45:09;;;;;;;5.18;3.08;;;29.40;54.90;;;;;;5027457;28;20243;-88
2023/07/12 11:47:39;;;;;;;3.38;2.63;;;29.30;53.90;;;;;;5019078;28;20240;-87
2023/07/12 11:50:06;;;;;;;4.13;2.90;;;29.60;53.20;;;;;;5024695;28;20177;-88
2023/07/12 11:52:34;;;;;;;3.78;3.38;;;29.30;52.30;;;;;;5021615;28;20178;-89
2023/07/12 11:55:04;;;;;;;4.88;2.90;;;29.50;52.60;;;;;;4999043;28;20192;-88
2023/07/12 11:57:38;;;;;;;3.85;3.25;;;29.40;53.10;;;;;;5022608;28;20180;-89
2023/07/12 12:00:15;;;;;;;7.07;3.42;;;29.70;53.50;;;;;;5021345;28;20239;-89
2023/07/12 12:02:41;;;;;;;4.05;3.08;;;;;;;;;;5018371;28;20689;-88
2023/07/12 12:05:20;;;;;;;3.85;3.40;;;30.00;54.30;;;;;;4998543;28;20181;-88
2023/07/12 12:07:47;;;;;;;3.47;2.90;;;30.30;51.50;;;;;;5015366;28;20177;-87
2023/07/12 12:10:28;;;;;;;4.57;3.38;;;30.40;53.70;;;;;;5016072;28;20184;-88
2023/07/12 12:12:54;;;;;;;3.28;2.97;;;;;;;;;;5014820;28;20308;-87
2023/07/12 12:15:20;;;;;;;4.65;3.15;;;;;;;;;;5015434;28;20599;-88
2023/07/12 12:17:46;;;;;;;7.72;3.38;;;;;;;;;;5015826;28;20174;-87
2023/07/12 12:20:12;;;;;;;4.25;2.90;;;30.70;52.90;;;;;;5014565;28;20271;-86
2023/07/12 12:22:45;;;;;;;4.10;3.15;;;30.90;54.60;;;;;;5015689;28;20330;-86
2023/07/12 12:25:19;;;;;;;5.05;3.13;;;30.70;51.70;;;;;;5015288;28;20654;-87
2023/07/12 12:27:46;;;;;;;5.10;3.60;;;30.70;52.30;;;;;;5014989;28;20203;-86
2023/07/12 12:30:15;;;;;;;5.25;3.58;;;30.70;52.10;;;;;;5002319;28;20192;-86
2023/07/12 12:32:43;;;;;;;5.70;3.80;;;30.40;52.30;;;;;;5034379;28;20185;-88
2023/07/12 12:35:13;;;;;;;5.72;3.88;;;30.40;52.70;;;;;;5030680;28;20180;-88
2023/07/12 12:37:39;;;;;;;5.38;3.70;;;30.30;52.10;;;;;;5033963;28;20196;-87
2023/07/12 12:40:17;;;;;;;4.07;3.60;;;30.30;52.90;;;;;;5034749;28;20196;-88
2023/07/12 12:43:01;;;;;;;8.30;3.30;;;29.60;56.30;;;;;;5039799;28;20207;-86
2023/07/12 12:45:33;;;;;;;4.15;2.88;;;29.40;53.60;;;;;;5044907;28;20221;-88
2023/07/12 12:48:00;;;;;;;13.13;3.80;;;29.40;54.10;;;;;;5035154;28;20756;-87
2023/07/12 12:50:26;;;;;;;4.40;3.35;;;29.30;53.60;;;;;;5038538;28;20670;-88
2023/07/12 12:53:00;;;;;;;4.20;3.40;;;29.80;54.60;;;;;;5022214;28;20196;-87
2023/07/12 12:55:26;;;;;;;3.67;3.05;;;29.80;55.10;;;;;;5038852;28;20188;-88
2023/07/12 12:57:52;;;;;;;4.85;3.80;;;30.20;55.30;;;;;;5038036;28;21822;-86
2023/07/12 13:00:22;;;;;;;5.45;3.70;;;30.60;54.50;;;;;;5039262;28;20190;-88
2023/07/12 13:02:50;;;;;;;6.00;3.90;;;30.80;53.40;;;;;;5035860;28;20223;-83
2023/07/12 13:05:17;;;;;;;5.38;3.53;;;30.80;53.10;;;;;;5045117;28;20214;-87
2023/07/12 13:07:44;;;;;;;4.10;3.45;;;30.80;52.90;;;;;;5034067;28;20652;-87
2023/07/12 13:10:17;;;;;;;5.20;4.13;;;30.70;53.00;;;;;;5017915;28;20250;-87
2023/07/12 13:12:44;;;;;;;4.93;3.40;;;30.70;53.80;;;;;;5042200;28;20196;-87
2023/07/12 13:15:21;;;;;;;4.55;3.78;;;30.60;52.40;;;;;;5037178;28;20176;-85
2023/07/12 13:17:51;;;;;;;5.68;3.97;;;29.60;55.60;;;;;;5032014;28;20192;-86
2023/07/12 13:20:20;;;;;;;5.68;3.92;;;30.20;53.20;;;;;;5039719;28;20180;-86
2023/07/12 13:22:48;;;;;;;4.53;3.88;;;30.20;53.40;;;;;;5043772;28;20203;-85